ADDS METAR Data INFO
IDs: Format: Raw Decoded Include TAF

Data at: 2101 UTC 19 Jul 2018

KOLF 192053Z AUTO 36011G20KT 10SM CLR 31/13 A2994 RMK AO2 SLP126 T03110128 56003 TSNO
KOLF 191953Z AUTO 03013G21KT 10SM FEW065 SCT120 31/13 A2994 RMK AO2 SLP127 T03060133 TSNO
KOLF 191853Z AUTO 35011G20KT 10SM SCT055 29/14 A2995 RMK AO2 SLP130 T02890139 TSNO
KOLF 191753Z AUTO 35013G21KT 10SM CLR 29/16 A2995 RMK AO2 SLP130 T02890156 10294 20161 51008 TSNO
KOLF 191653Z AUTO 36015KT 10SM CLR 27/17 A2994 RMK AO2 SLP128 T02720172 TSNO
KOLF 191553Z AUTO 36009KT 10SM CLR 27/17 A2993 RMK AO2 SLP124 T02670172 TSNO
KOLF 191453Z AUTO 02005KT 10SM CLR 26/15 A2992 RMK AO2 SLP121 T02560150 50010 TSNO
KOLF 191353Z AUTO 25004KT 10SM CLR 21/14 A2992 RMK AO2 SLP121 T02110144 TSNO
KOLF 191253Z AUTO 00000KT 10SM CLR 19/14 A2991 RMK AO2 SLP116 T01890144 TSNO
KOLF 191153Z AUTO 25005KT 10SM CLR 16/13 A2989 RMK AO2 SLP112 T01610133 10211 20161 53008 TSNO
KOLF 191053Z AUTO 31005KT 10SM CLR 17/13 A2987 RMK AO2 SLP100 T01670133 TSNO
KOLF 190953Z AUTO 22003KT 10SM FEW100 19/14 A2986 RMK AO2 SLP095 T01890139 TSNO
KOLF 190853Z AUTO 07006KT 10SM SCT100 21/14 A2987 RMK AO2 SLP100 T02060139 55002 TSNO
KOLF 190753Z AUTO 07005KT 10SM FEW100 19/15 A2985 RMK AO2 SLP094 T01890150 TSNO
KOLF 190653Z AUTO 06007KT 10SM CLR 19/15 A2984 RMK AO2 SLP093 T01940150 403500156 TSNO
KOLF 190553Z AUTO 08007KT 10SM FEW120 21/15 A2987 RMK AO2 SLP103 T02110150 10317 20211 51006 TSNO
KOLF 190453Z AUTO 06012KT 10SM CLR 21/15 A2987 RMK AO2 SLP103 T02110150 TSNO
KOLF 190353Z AUTO 11006KT 10SM CLR 24/14 A2986 RMK AO2 SLP098 T02440139 TSNO
KOLF 190253Z AUTO 10013G21KT 10SM CLR 26/14 A2985 RMK AO2 SLP098 T02560144 53003 TSNO
KOLF 190153Z AUTO 06007KT 10SM CLR 29/13 A2983 RMK AO2 SLP089 T02890128 TSNO
KOLF 190053Z AUTO 04014KT 10SM SCT110 30/12 A2984 RMK AO2 SLP092 T03000117 TSNO
KOLF 182353Z AUTO VRB03KT 10SM BKN095 30/12 A2985 RMK AO2 SLP096 T03000122 10350 20300 55010 TSNO
KOLF 182253Z AUTO 21008KT 10SM CLR 35/12 A2984 RMK AO2 SLP093 T03500117 TSNO
KOLF 182153Z AUTO 24009KT 10SM CLR 34/12 A2986 RMK AO2 SLP096 T03440117 TSNO
KOLF 182053Z AUTO VRB06KT 10SM CLR 33/12 A2988 RMK AO2 SLP104 T03330122 TSNO
KOLF 181953Z AUTO 19006KT 10SM CLR 32/12 A2989 RMK AO2 SLP109 T03220122 TSNO $
KOLF 181853Z AUTO 21009G14KT 10SM CLR 32/13 A2990 RMK AO2 SLP112 T03170133 TSNO
KOLF 181753Z AUTO 22009KT 10SM CLR 31/12 A2991 RMK AO2 SLP115 T03060122 10317 20167 56010 TSNO
KOLF 181653Z AUTO 25005KT 10SM CLR 30/13 A2992 RMK AO2 SLP116 T03000133 TSNO
KOLF 181553Z AUTO 25003KT 10SM CLR 27/14 A2994 RMK AO2 SLP122 T02670144 TSNO
KOLF 181453Z AUTO 00000KT 10SM CLR 23/15 A2995 RMK AO2 SLP126 T02330150 53000 TSNO
KOLF 181353Z AUTO 10003KT 10SM CLR 20/14 A2995 RMK AO2 SLP127 T02000144 TSNO
KOLF 181253Z AUTO 00000KT 10SM CLR 18/13 A2994 RMK AO2 SLP126 T01830128 TSNO
KOLF 181153Z AUTO 00000KT 10SM CLR 17/13 A2994 RMK AO2 SLP128 T01670128 10244 20156 55003 TSNO
KOLF 181053Z AUTO 00000KT 10SM CLR 16/12 A2994 RMK AO2 SLP126 T01610117 TSNO
KOLF 180953Z AUTO 00000KT 10SM CLR 17/12 A2995 RMK AO2 SLP129 T01720122 TSNO